Time;durP1;ratioP1;P1;durP2;ratioP2;P2;SDS_P1;SDS_P2;PMS_P1;PMS_P2;Temp;Humidity;BMP_temperature;BMP_pressure;BME280_temperature;BME280_humidity;BME280_pressure;Samples;Min_cycle;Max_cycle;Signal;HPM_P1;HPM_P2
2022/01/17 00:00:28;;;;;;;37.95;22.62;;;;;;;4.41;59.15;100440.78;4389241;32;33997;-55
2022/01/17 00:02:56;;;;;;;;;;;;;;;4.64;58.80;100442.81;4389715;32;34006;-55
2022/01/17 00:05:23;;;;;;;37.60;23.10;;;;;;;4.74;58.38;100432.03;4389162;32;34251;-55
2022/01/17 00:07:51;;;;;;;34.72;23.17;;;;;;;4.67;58.89;100438.34;4388960;32;34550;-55
2022/01/17 00:10:19;;;;;;;38.22;24.35;;;;;;;4.59;59.24;100424.59;4388970;32;34611;-55
2022/01/17 00:12:48;;;;;;;38.08;23.02;;;;;;;4.48;59.53;100430.13;4388993;32;35245;-55
2022/01/17 00:15:27;;;;;;;36.50;24.02;;;;;;;4.37;59.76;100432.16;4389194;32;33356;-55
2022/01/17 00:20:44;;;;;;;35.63;23.50;;;;;;;4.40;60.05;100424.25;4388955;32;34731;-55
2022/01/17 00:23:14;;;;;;;38.92;24.85;;;;;;;4.63;59.13;100425.38;4388995;32;33783;-55
2022/01/17 00:25:41;;;;;;;35.58;23.55;;;;;;;4.59;59.45;100423.75;4388934;32;32748;-55
2022/01/17 00:28:08;;;;;;;36.78;24.10;;;;;;;4.36;60.24;100427.81;4388940;32;34949;-55
2022/01/17 00:30:36;;;;;;;35.00;23.87;;;;;;;4.45;59.92;100430.19;4388984;32;34515;-55
2022/01/17 00:33:04;;;;;;;34.83;23.33;;;;;;;4.55;59.82;100430.81;4389195;32;33837;-55
2022/01/17 00:35:31;;;;;;;34.47;23.00;;;;;;;4.57;59.59;100425.56;4388882;32;33292;-55
2022/01/17 00:37:59;;;;;;;34.38;22.27;;;;;;;4.43;59.85;100424.16;4388610;32;33967;-56
2022/01/17 00:40:26;;;;;;;34.22;22.40;;;;;;;4.40;60.18;100428.59;4388716;32;34429;-55
2022/01/17 00:42:54;;;;;;;32.53;22.23;;;;;;;4.57;59.77;100420.31;4387465;32;33449;-55
2022/01/17 00:45:29;;;;;;;32.33;21.35;;;;;;;4.56;59.58;100439.53;4388813;32;33328;-56
2022/01/17 00:47:58;;;;;;;31.95;22.15;;;;;;;4.56;59.45;100436.94;4388852;32;34801;-55
2022/01/17 00:50:27;;;;;;;32.42;21.73;;;;;;;4.67;59.22;100443.59;4388869;32;34440;-55
2022/01/17 00:52:55;;;;;;;31.92;21.42;;;;;;;4.74;58.96;100431.19;4388832;32;33778;-55
2022/01/17 00:55:22;;;;;;;;;;;;;;;4.96;58.38;100433.19;4388976;32;34485;-55
2022/01/17 00:57:50;;;;;;;31.17;20.42;;;;;;;5.00;58.13;100440.94;4388684;32;34267;-55
2022/01/17 01:00:17;;;;;;;32.53;20.48;;;;;;;4.91;58.31;100442.03;4388602;32;34564;-55
2022/01/17 01:02:46;;;;;;;30.45;19.50;;;;;;;5.02;58.04;100428.66;4388809;32;34444;-56
2022/01/17 01:05:14;;;;;;;28.45;19.58;;;;;;;5.02;58.04;100433.03;4388813;32;32962;-55
2022/01/17 01:07:41;;;;;;;29.27;18.65;;;;;;;5.28;57.13;100433.13;4388755;32;34535;-55
2022/01/17 01:10:10;;;;;;;27.92;17.80;;;;;;;5.09;57.54;100442.44;4388581;32;34476;-56
2022/01/17 01:12:39;;;;;;;26.25;16.87;;;;;;;4.99;57.84;100433.13;4388625;32;33831;-55
2022/01/17 01:15:13;;;;;;;26.52;16.90;;;;;;;5.02;57.75;100427.78;4388953;32;33338;-55
2022/01/17 01:28:24;;;;;;;19.45;13.02;;;;;;;5.11;57.28;100399.59;4387945;32;34814;-55
2022/01/17 01:30:54;;;;;;;19.70;13.00;;;;;;;5.13;57.26;100399.53;4388658;32;35394;-55
2022/01/17 01:33:35;;;;;;;19.75;13.70;;;;;;;5.23;56.89;100392.28;4388484;32;33724;-55
2022/01/17 01:36:09;;;;;;;19.95;13.60;;;;;;;5.36;56.60;100403.25;4388341;32;33535;-55
2022/01/17 01:38:39;;;;;;;18.67;12.10;;;;;;;5.09;57.04;100397.91;4388324;32;34075;-55
2022/01/17 01:41:07;;;;;;;19.42;12.63;;;;;;;5.09;56.99;100387.44;4388252;32;34953;-55
2022/01/17 01:43:36;;;;;;;19.70;12.35;;;;;;;5.12;56.85;100393.47;4388736;32;33834;-55
2022/01/17 01:46:03;;;;;;;17.95;12.20;;;;;;;4.93;57.28;100390.50;4388703;32;33278;-55
2022/01/17 01:48:32;;;;;;;;;;;;;;;5.00;57.24;100380.75;4388951;32;33470;-55
2022/01/17 01:50:59;;;;;;;17.52;11.68;;;;;;;5.16;56.50;100391.62;4388414;32;34498;-55
2022/01/17 01:53:27;;;;;;;16.33;11.15;;;;;;;5.27;56.37;100389.53;4388368;32;35078;-55
2022/01/17 01:55:57;;;;;;;17.62;11.40;;;;;;;5.22;56.45;100385.34;4388569;32;33165;-55
2022/01/17 01:58:25;;;;;;;17.37;11.35;;;;;;;5.22;56.46;100377.47;4388140;32;34686;-56
2022/01/17 02:00:54;;;;;;;17.83;11.48;;;;;;;5.16;56.37;100380.25;4388485;32;34139;-55
2022/01/17 02:03:22;;;;;;;17.85;11.48;;;;;;;5.15;56.33;100397.72;4388315;32;34614;-56
2022/01/17 02:05:50;;;;;;;16.70;11.45;;;;;;;5.17;56.12;100388.06;4388767;32;33066;-55
2022/01/17 02:08:17;;;;;;;16.37;11.27;;;;;;;5.29;55.91;100400.81;4388292;32;33454;-55
2022/01/17 02:10:45;;;;;;;17.73;12.07;;;;;;;5.35;55.88;100404.13;4388168;32;34121;-55
2022/01/17 02:13:12;;;;;;;17.15;12.07;;;;;;;5.13;56.48;100399.53;4388266;32;33857;-55
2022/01/17 02:15:42;;;;;;;19.83;13.00;;;;;;;5.32;56.09;100405.09;4388389;32;34249;-56
2022/01/17 02:18:12;;;;;;;19.12;12.80;;;;;;;5.67;55.23;100401.38;4388203;32;34762;-55
2022/01/17 02:23:08;;;;;;;20.58;13.77;;;;;;;5.42;56.05;100389.97;4374514;32;34675;-55
2022/01/17 02:25:35;;;;;;;19.92;13.65;;;;;;;5.29;56.36;100400.81;4388012;32;34167;-55
2022/01/17 02:28:03;;;;;;;21.12;13.90;;;;;;;5.36;56.28;100392.78;4388178;32;33518;-56
2022/01/17 02:30:33;;;;;;;;;;;;;;;5.55;55.78;100386.06;4388444;32;34633;-56
2022/01/17 02:33:02;;;;;;;21.50;13.65;;;;;;;5.52;55.81;100387.03;4388156;32;34202;-55
2022/01/17 02:35:30;;;;;;;21.42;13.88;;;;;;;5.33;56.39;100383.22;4388319;32;33349;-55
2022/01/17 02:37:58;;;;;;;20.30;13.62;;;;;;;5.47;56.13;100377.59;4387832;32;34160;-55
2022/01/17 02:40:25;;;;;;;;;;;;;;;5.42;56.08;100382.09;4387054;32;34128;-55
2022/01/17 02:43:06;;;;;;;19.45;13.62;;;;;;;5.06;57.10;100374.44;4387960;32;35041;-55
2022/01/17 02:46:24;;;;;;;21.35;13.90;;;;;;;5.03;57.23;100377.16;4387932;32;34017;-55
2022/01/17 02:48:27;;;;;;;20.55;13.02;;;;;;;5.25;56.50;100357.31;4387922;32;33959;-55
2022/01/17 02:50:55;;;;;;;19.35;12.82;;;;;;;5.09;56.90;100369.97;4387845;32;35030;-56
2022/01/17 02:53:22;;;;;;;;;;;;;;;5.11;57.00;100343.75;4388278;32;33780;-55
2022/01/17 02:55:55;;;;;;;19.27;13.05;;;;;;;5.39;56.04;100350.75;4387986;32;32762;-55
2022/01/17 02:58:24;;;;;;;18.83;12.65;;;;;;;5.21;56.34;100354.81;4387768;32;33796;-55
2022/01/17 03:00:55;;;;;;;16.80;11.93;;;;;;;5.18;56.50;100344.44;4387638;32;35268;-55
2022/01/17 03:03:25;;;;;;;19.17;12.80;;;;;;;5.27;56.11;100337.16;4387833;32;34480;-55
2022/01/17 03:05:55;;;;;;;18.80;12.37;;;;;;;5.12;56.36;100324.53;4387770;32;33589;-55
2022/01/17 03:08:25;;;;;;;19.58;12.52;;;;;;;5.31;55.83;100330.03;4387751;32;34155;-55
2022/01/17 03:10:55;;;;;;;18.35;12.48;;;;;;;5.37;55.65;100316.78;4387780;32;34510;-55
2022/01/17 03:13:31;;;;;;;18.85;12.55;;;;;;;5.23;55.81;100314.56;4387455;32;34128;-55
2022/01/17 03:16:07;;;;;;;19.25;12.90;;;;;;;5.12;56.17;100308.84;4387464;32;34263;-56
2022/01/17 03:18:39;;;;;;;17.02;11.68;;;;;;;4.98;56.59;100319.69;4387513;32;33528;-55
2022/01/17 03:21:08;;;;;;;16.87;11.68;;;;;;;5.08;56.28;100312.44;4387456;32;35228;-55
2022/01/17 03:23:37;;;;;;;18.42;11.73;;;;;;;5.25;55.74;100301.44;4387500;32;34997;-56
2022/01/17 03:26:06;;;;;;;19.10;12.27;;;;;;;5.22;55.65;100325.13;4387261;32;33102;-55
2022/01/17 03:28:33;;;;;;;17.67;11.05;;;;;;;5.24;55.63;100311.06;4387225;32;33627;-55
2022/01/17 03:31:01;;;;;;;19.77;11.57;;;;;;;5.37;55.24;100318.50;4387239;32;34016;-55
2022/01/17 03:33:28;;;;;;;17.17;11.50;;;;;;;5.48;54.94;100324.28;4387337;32;33781;-55
2022/01/17 03:35:56;;;;;;;16.75;11.30;;;;;;;5.41;54.99;100339.34;4387327;32;34542;-56
2022/01/17 03:38:25;;;;;;;;;;;;;;;5.38;55.05;100335.97;4387446;32;33769;-55
2022/01/17 03:40:53;;;;;;;17.00;11.23;;;;;;;5.65;54.37;100339.47;4387537;32;34873;-55
2022/01/17 03:43:22;;;;;;;15.65;10.73;;;;;;;5.82;53.74;100352.03;4387164;32;33915;-55
2022/01/17 03:45:50;;;;;;;17.70;11.25;;;;;;;5.53;54.50;100366.91;4387212;32;32844;-56
2022/01/17 03:48:19;;;;;;;17.30;11.05;;;;;;;5.48;54.89;100368.81;4386982;32;34689;-55
2022/01/17 03:50:47;;;;;;;16.25;10.60;;;;;;;5.53;54.66;100373.00;4386946;32;35278;-55
2022/01/17 03:53:15;;;;;;;17.17;10.98;;;;;;;5.52;54.68;100355.59;4388804;32;34397;-55
2022/01/17 03:55:42;;;;;;;16.40;11.07;;;;;;;5.69;54.18;100344.53;4389463;32;32994;-55
2022/01/17 03:58:09;;;;;;;16.45;10.90;;;;;;;5.69;54.09;100359.41;4389142;32;34596;-55
2022/01/17 04:00:41;;;;;;;18.95;11.60;;;;;;;5.93;53.49;100355.09;4389030;32;34105;-55
2022/01/17 04:03:09;;;;;;;17.33;11.40;;;;;;;5.69;54.30;100367.28;4389159;32;33779;-55
2022/01/17 04:05:37;;;;;;;18.42;12.20;;;;;;;5.63;54.50;100362.22;4389278;32;33511;-55
2022/01/17 04:08:05;;;;;;;19.70;12.37;;;;;;;5.63;54.63;100367.47;4389081;32;34807;-55
2022/01/17 04:10:33;;;;;;;18.35;12.13;;;;;;;5.67;54.61;100358.59;4389128;32;34134;-55
2022/01/17 04:13:03;;;;;;;18.40;12.55;;;;;;;5.58;54.75;100364.97;4389106;32;33772;-55
2022/01/17 04:15:33;;;;;;;18.90;12.95;;;;;;;5.62;54.76;100360.50;4389018;32;33478;-55
2022/01/17 04:18:01;;;;;;;19.60;13.23;;;;;;;5.46;55.16;100357.53;4389012;32;34768;-55
2022/01/17 04:20:30;;;;;;;20.27;13.73;;;;;;;5.43;55.26;100370.69;4388819;32;34279;-55
2022/01/17 04:23:00;;;;;;;19.55;13.43;;;;;;;5.65;54.72;100361.25;4388958;32;34271;-55
2022/01/17 04:25:29;;;;;;;19.02;13.13;;;;;;;5.44;55.47;100375.06;4389071;32;33478;-56
2022/01/17 04:27:58;;;;;;;25.98;15.68;;;;;;;5.47;55.38;100373.19;4389120;32;34095;-55
2022/01/17 04:30:26;;;;;;;19.92;12.98;;;;;;;5.39;55.71;100376.94;4389170;32;34246;-56
2022/01/17 04:32:55;;;;;;;20.58;13.32;;;;;;;5.64;55.23;100384.88;4389089;32;34384;-55
2022/01/17 04:35:25;;;;;;;22.85;14.30;;;;;;;5.49;55.37;100394.13;4388902;32;33671;-56
2022/01/17 04:38:13;;;;;;;21.02;13.88;;;;;;;5.57;55.16;100386.88;4388834;32;34441;-55
2022/01/17 04:40:43;;;;;;;17.83;12.82;;;;;;;5.50;55.43;100372.22;4389107;32;35475;-55
2022/01/17 04:46:10;;;;;;;18.50;12.37;;;;;;;5.69;55.10;100372.50;4373423;32;33414;-55
2022/01/17 04:48:38;;;;;;;21.92;13.40;;;;;;;5.94;54.51;100362.09;4388967;32;33837;-55
2022/01/17 04:51:06;;;;;;;18.85;13.20;;;;;;;5.63;54.98;100349.97;4388688;32;34367;-55
2022/01/17 04:53:33;;;;;;;20.00;13.68;;;;;;;5.48;55.58;100353.94;4388852;32;34383;-55
2022/01/17 04:56:01;;;;;;;19.25;12.05;;;;;;;5.43;55.72;100355.87;4388818;32;34179;-55
2022/01/17 04:58:28;;;;;;;20.08;13.30;;;;;;;5.43;55.78;100344.50;4388905;32;33467;-55
2022/01/17 05:00:56;;;;;;;19.20;12.40;;;;;;;5.54;55.55;100347.66;4388695;32;35111;-55
2022/01/17 05:03:25;;;;;;;19.48;12.52;;;;;;;5.73;54.71;100332.19;4387991;32;33818;-55
2022/01/17 05:05:54;;;;;;;29.05;17.17;;;;;;;5.58;55.35;100327.44;4388615;32;33512;-55
2022/01/17 05:08:21;;;;;;;21.05;13.30;;;;;;;5.75;55.18;100334.78;4388743;32;33609;-55
2022/01/17 05:10:54;;;;;;;20.33;13.35;;;;;;;5.69;55.20;100351.56;4388825;32;34057;-56
2022/01/17 05:13:31;;;;;;;19.10;12.63;;;;;;;5.72;55.00;100340.97;4388670;32;34190;-55
2022/01/17 05:16:13;;;;;;;19.10;13.02;;;;;;;5.67;55.10;100343.72;4388652;32;33671;-55
2022/01/17 05:21:08;;;;;;;19.85;13.52;;;;;;;5.82;54.84;100352.03;4388472;32;35662;-55
2022/01/17 05:23:35;;;;;;;21.35;13.25;;;;;;;5.88;54.46;100350.03;4388664;32;34341;-55
2022/01/17 05:26:03;;;;;;;18.55;12.73;;;;;;;5.65;55.28;100357.81;4388673;32;33264;-56
2022/01/17 05:28:30;;;;;;;21.33;14.77;;;;;;;5.52;55.64;100358.19;4388822;32;34121;-55
2022/01/17 05:30:58;;;;;;;20.77;13.75;;;;;;;5.47;55.76;100357.47;4388585;32;34431;-55
2022/01/17 05:33:25;;;;;;;;;;;;;;;5.87;54.73;100357.94;4388885;32;33874;-56
2022/01/17 05:35:53;;;;;;;20.25;13.00;;;;;;;5.81;54.84;100348.50;4388357;32;33562;-55
2022/01/17 05:38:20;;;;;;;20.08;13.60;;;;;;;5.94;54.43;100338.50;4384800;32;33910;-55
2022/01/17 05:40:49;;;;;;;19.50;12.88;;;;;;;5.80;54.90;100340.72;4374530;32;34548;-55
2022/01/17 05:43:16;;;;;;;19.98;12.80;;;;;;;5.61;55.47;100328.22;4373419;32;34972;-55
2022/01/17 05:45:44;;;;;;;18.92;12.90;;;;;;;5.58;55.68;100317.81;4377242;32;33785;-55
2022/01/17 05:48:12;;;;;;;18.75;13.50;;;;;;;5.51;55.88;100313.72;4388434;32;33409;-55
2022/01/17 05:50:40;;;;;;;19.90;13.02;;;;;;;5.77;55.28;100312.84;4387827;32;33670;-56
2022/01/17 05:53:08;;;;;;;18.37;12.63;;;;;;;5.48;55.92;100312.03;4384886;32;34038;-55
2022/01/17 05:55:35;;;;;;;19.73;13.25;;;;;;;5.53;55.63;100310.12;4388109;32;33195;-55
2022/01/17 05:58:03;;;;;;;19.52;12.85;;;;;;;5.77;55.11;100318.09;4384486;32;35396;-55
2022/01/17 06:00:30;;;;;;;17.73;12.05;;;;;;;5.63;55.40;100320.31;4383179;32;34078;-55
2022/01/17 06:02:58;;;;;;;;;;;;;;;5.60;55.28;100302.91;4388919;32;34311;-55
2022/01/17 06:05:26;;;;;;;19.20;12.00;;;;;;;5.72;55.04;100314.78;4388358;32;33773;-55
2022/01/17 06:07:53;;;;;;;16.42;11.63;;;;;;;5.65;54.87;100305.41;4371017;32;33144;-55
2022/01/17 06:10:21;;;;;;;;;;;;;;;5.64;55.04;100308.91;4387357;32;34149;-55
2022/01/17 06:12:48;;;;;;;17.12;11.10;;;;;;;5.70;54.76;100309.56;4394456;32;34473;-55
2022/01/17 06:15:18;;;;;;;17.48;11.43;;;;;;;5.43;55.73;100323.56;4372913;32;33490;-56
2022/01/17 06:17:45;;;;;;;16.77;11.10;;;;;;;5.56;55.27;100311.78;4373188;32;33601;-55
2022/01/17 06:20:14;;;;;;;16.70;11.52;;;;;;;5.62;55.14;100308.97;4377703;32;34003;-55
2022/01/17 06:22:41;;;;;;;16.75;11.35;;;;;;;5.77;54.67;100314.59;4388442;32;33698;-55
2022/01/17 06:25:10;;;;;;;17.87;11.80;;;;;;;5.67;54.97;100312.28;4378642;32;33210;-56
2022/01/17 06:27:38;;;;;;;;;;;;;;;5.81;54.69;100321.47;4373359;32;33886;-55
2022/01/17 06:30:13;;;;;;;15.77;11.02;;;;;;;5.86;54.44;100316.94;4373670;32;34893;-56
2022/01/17 06:32:41;;;;;;;17.52;11.10;;;;;;;5.85;54.68;100315.19;4386471;32;34246;-55
2022/01/17 06:35:11;;;;;;;18.17;10.88;;;;;;;5.92;54.36;100320.19;4375931;32;34536;-54
2022/01/17 06:37:39;;;;;;;14.77;10.43;;;;;;;5.90;57.11;100319.38;4377191;32;34704;-56
2022/01/17 06:40:07;;;;;;;14.32;10.02;;;;;;;6.05;53.90;100307.56;4387791;32;34066;-55
2022/01/17 06:42:35;;;;;;;16.42;10.60;;;;;;;6.06;54.05;100306.62;4388004;32;33951;-55
2022/01/17 06:45:04;;;;;;;15.73;10.00;;;;;;;5.70;54.67;100296.47;4388046;32;33264;-55
2022/01/17 06:47:33;;;;;;;16.02;10.93;;;;;;;6.11;53.68;100296.84;4387954;32;34442;-55
2022/01/17 06:50:04;;;;;;;14.30;9.38;;;;;;;6.00;53.96;100285.03;4387955;32;34145;-56
2022/01/17 06:52:32;;;;;;;15.73;10.30;;;;;;;5.84;54.36;100287.28;4387775;32;34075;-56
2022/01/17 06:55:08;;;;;;;16.12;10.63;;;;;;;5.85;54.40;100279.34;4387874;32;33253;-55
2022/01/17 06:57:36;;;;;;;14.65;9.98;;;;;;;5.79;54.69;100300.53;4387685;32;33637;-55
2022/01/17 07:00:11;;;;;;;15.82;10.15;;;;;;;6.02;54.06;100293.69;4387820;32;34191;-56
2022/01/17 07:02:39;;;;;;;13.13;9.63;;;;;;;5.90;54.40;100281.84;4387825;32;33390;-56
2022/01/17 07:05:07;;;;;;;13.57;9.20;;;;;;;5.81;54.59;100282.16;4387709;32;34407;-55
2022/01/17 07:07:35;;;;;;;14.93;9.18;;;;;;;5.88;54.34;100279.25;4387748;32;33712;-56
2022/01/17 07:10:04;;;;;;;12.82;8.85;;;;;;;5.81;54.81;100277.75;4387501;32;34017;-56
2022/01/17 07:12:32;;;;;;;12.73;8.60;;;;;;;5.89;54.59;100267.87;4380223;32;34861;-55
2022/01/17 07:14:59;;;;;;;13.73;9.35;;;;;;;6.14;57.59;100258.31;4385527;32;33462;-56
2022/01/17 07:17:27;;;;;;;18.83;9.30;;;;;;;6.07;54.28;100255.91;4380905;32;34756;-55
2022/01/17 07:19:54;;;;;;;13.90;9.60;;;;;;;5.93;54.46;100265.97;4378903;32;34672;-56
2022/01/17 07:22:22;;;;;;;14.95;9.45;;;;;;;5.96;54.55;100265.06;4384417;32;33864;-56
2022/01/17 07:24:49;;;;;;;14.60;9.70;;;;;;;6.16;54.05;100272.22;4386513;32;33857;-55
2022/01/17 07:27:17;;;;;;;14.95;9.85;;;;;;;6.01;54.55;100268.38;4386613;32;34379;-56
2022/01/17 07:29:45;;;;;;;14.55;9.45;;;;;;;5.94;54.80;100277.34;4383391;32;34752;-55
2022/01/17 07:32:12;;;;;;;13.45;8.40;;;;;;;5.95;54.69;100298.28;4374212;32;34262;-56
2022/01/17 07:34:40;;;;;;;13.38;8.82;;;;;;;6.04;54.52;100310.22;4374152;32;33002;-56
2022/01/17 07:37:07;;;;;;;13.70;9.38;;;;;;;6.02;54.78;100310.28;4380315;32;34664;-56
2022/01/17 07:39:36;;;;;;;15.35;9.32;;;;;;;6.08;54.47;100319.69;4379906;32;34060;-56
2022/01/17 07:42:03;;;;;;;;;;;;;;;6.00;54.66;100340.09;4374383;32;34949;-56
2022/01/17 07:44:33;;;;;;;13.07;8.63;;;;;;;6.17;54.33;100361.34;4373487;32;33380;-55
2022/01/17 07:47:02;;;;;;;13.10;8.60;;;;;;;6.24;53.99;100385.56;4373926;32;33851;-55
2022/01/17 07:49:30;;;;;;;12.18;7.82;;;;;;;6.06;54.71;100389.69;4373773;32;34685;-56
2022/01/17 07:52:01;;;;;;;12.75;8.40;;;;;;;5.93;55.10;100373.47;4373514;32;34897;-56
2022/01/17 07:54:31;;;;;;;12.70;8.20;;;;;;;6.19;54.58;100351.66;4374042;32;34082;-55
2022/01/17 07:57:00;;;;;;;12.63;7.78;;;;;;;5.91;55.18;100328.97;4373848;32;33515;-56
2022/01/17 07:59:28;;;;;;;12.68;8.98;;;;;;;6.08;55.06;100325.78;4374037;32;34907;-56
2022/01/17 08:01:56;;;;;;;14.05;8.48;;;;;;;6.17;54.87;100305.41;4384941;32;34357;-56
2022/01/17 08:04:24;;;;;;;12.85;8.13;;;;;;;6.20;54.70;100303.53;4388520;32;33230;-56
2022/01/17 08:06:52;;;;;;;15.38;10.57;;;;;;;6.19;54.62;100320.19;4377316;32;34698;-56
2022/01/17 08:09:32;;;;;;;12.82;7.93;;;;;;;6.40;54.32;100309.84;4373663;32;35334;-56
2022/01/17 08:12:04;;;;;;;11.20;7.62;;;;;;;6.28;54.48;100309.38;4381236;32;33920;-56
2022/01/17 08:14:32;;;;;;;12.30;7.85;;;;;;;6.34;54.52;100303.06;4386611;32;33278;-56
2022/01/17 08:16:59;;;;;;;11.32;7.60;;;;;;;6.36;54.38;100284.63;4387417;32;34444;-57
2022/01/17 08:19:27;;;;;;;;;;;;;;;6.16;54.90;100273.06;4382030;32;34885;-56
2022/01/17 08:22:03;;;;;;;13.23;7.90;;;;;;;6.18;55.03;100267.78;4373252;32;35105;-56
2022/01/17 08:24:31;;;;;;;12.18;7.90;;;;;;;6.05;55.33;100270.84;4383189;32;33482;-56
2022/01/17 08:26:59;;;;;;;12.48;7.90;;;;;;;6.07;55.20;100242.81;4388309;32;33823;-56
2022/01/17 08:29:28;;;;;;;;;;;;;;;6.28;54.87;100251.66;4388675;32;34488;-55
2022/01/17 08:31:56;;;;;;;12.53;8.30;;;;;;;6.30;54.77;100246.34;4387490;32;35835;-56
2022/01/17 08:34:24;;;;;;;12.02;8.10;;;;;;;6.24;54.98;100251.81;4381025;32;33494;-55
2022/01/17 08:36:53;;;;;;;12.10;7.65;;;;;;;6.41;54.61;100266.94;4381980;32;33713;-54
2022/01/17 08:39:24;;;;;;;12.05;8.02;;;;;;;6.37;54.46;100266.19;4387479;32;34417;-53
2022/01/17 08:41:53;;;;;;;11.05;7.45;;;;;;;6.45;54.29;100265.91;4384455;32;35100;-54
2022/01/17 08:44:21;;;;;;;13.38;8.40;;;;;;;6.49;54.11;100281.50;4373063;32;33113;-54
2022/01/17 08:46:49;;;;;;;13.27;8.07;;;;;;;6.48;54.56;100302.56;4376024;32;34211;-54
2022/01/17 08:49:17;;;;;;;12.77;8.35;;;;;;;6.51;54.21;100315.53;4373560;32;34905;-54
2022/01/17 08:51:46;;;;;;;12.55;8.48;;;;;;;6.67;53.88;100319.31;4384329;32;33668;-54
2022/01/17 08:54:14;;;;;;;15.57;9.73;;;;;;;6.78;53.64;100312.81;4374099;32;33649;-54
2022/01/17 08:56:41;;;;;;;14.27;9.02;;;;;;;6.39;54.64;100295.00;4374057;32;33529;-54
2022/01/17 08:59:09;;;;;;;15.27;9.20;;;;;;;6.39;54.69;100306.34;4376346;32;34357;-54
2022/01/17 09:01:37;;;;;;;16.65;11.02;;;;;;;6.34;55.15;100281.19;4382669;32;34958;-55
2022/01/17 09:04:05;;;;;;;13.88;9.05;;;;;;;6.48;55.07;100232.56;4388984;32;33802;-54
2022/01/17 09:06:33;;;;;;;16.25;9.68;;;;;;;6.41;55.47;100228.44;4371790;32;31730;-54
2022/01/17 09:09:00;;;;;;;16.48;10.00;;;;;;;6.44;55.95;100241.47;4373074;32;33901;-53
2022/01/17 09:11:30;;;;;;;15.40;9.75;;;;;;;6.43;55.69;100236.25;4373399;32;34242;-54
2022/01/17 09:13:58;;;;;;;17.77;10.35;;;;;;;6.25;56.51;100233.41;4373038;32;33263;-54
2022/01/17 09:16:25;;;;;;;14.15;9.63;;;;;;;6.44;55.91;100228.34;4383116;32;34812;-54
2022/01/17 09:18:53;;;;;;;16.27;9.55;;;;;;;6.35;55.79;100212.94;4373522;32;34610;-54
2022/01/17 09:21:20;;;;;;;15.68;9.77;;;;;;;6.20;56.33;100224.84;4373031;32;34120;-54
2022/01/17 09:23:49;;;;;;;15.90;9.95;;;;;;;6.21;55.86;100230.97;4373155;32;33555;-54
2022/01/17 09:26:18;;;;;;;12.80;9.25;;;;;;;6.38;55.40;100231.19;4373606;32;33547;-54
2022/01/17 09:28:47;;;;;;;14.00;9.23;;;;;;;6.45;55.10;100213.44;4372773;32;35113;-54
2022/01/17 09:31:16;;;;;;;14.60;9.57;;;;;;;6.27;55.40;100217.63;4373259;32;34358;-54
2022/01/17 09:33:44;;;;;;;;;;;;;;;6.39;55.17;100211.91;4373677;32;33564;-54
2022/01/17 09:36:11;;;;;;;17.23;9.68;;;;;;;6.57;54.70;100210.37;4376162;32;33884;-54
2022/01/17 09:38:39;;;;;;;16.62;9.88;;;;;;;6.50;54.62;100196.63;4388502;32;34134;-54
2022/01/17 09:41:06;;;;;;;14.05;9.25;;;;;;;6.60;54.27;100199.75;4388228;32;33272;-54
2022/01/17 09:43:44;;;;;;;15.85;9.93;;;;;;;6.66;54.26;100203.91;4376194;32;33231;-54
2022/01/17 09:46:12;;;;;;;14.93;9.80;;;;;;;6.56;54.44;100178.94;4373948;32;34682;-54
2022/01/17 09:48:46;;;;;;;15.40;9.80;;;;;;;6.63;54.15;100185.63;4385532;32;34126;-54
2022/01/17 09:52:05;;;;;;;13.70;9.25;;;;;;;6.50;54.58;100167.75;4387196;32;33679;-56
2022/01/17 09:54:11;;;;;;;14.93;9.70;;;;;;;6.72;53.88;100153.78;4384642;32;34534;-56
2022/01/17 09:56:38;;;;;;;16.50;10.20;;;;;;;6.60;53.78;100141.16;4372899;32;34757;-56
2022/01/17 09:59:06;;;;;;;13.77;9.73;;;;;;;6.74;53.46;100143.25;4372748;32;34831;-56
2022/01/17 10:01:33;;;;;;;14.98;10.35;;;;;;;6.78;53.38;100143.03;4372971;32;33876;-56
2022/01/17 10:04:06;;;;;;;15.88;10.70;;;;;;;6.78;53.49;100143.03;4373352;32;33007;-56
2022/01/17 10:06:35;;;;;;;14.43;10.40;;;;;;;6.83;53.28;100137.62;4387474;32;34357;-56
2022/01/17 10:09:13;;;;;;;17.25;11.60;;;;;;;6.79;53.30;100147.41;4388271;32;34482;-56
2022/01/17 10:12:12;;;;;;;15.38;10.27;;;;;;;6.94;52.95;100147.66;4387841;32;34567;-56
2022/01/17 10:14:43;;;;;;;14.95;10.70;;;;;;;7.04;52.79;100146.41;4384456;32;33331;-56
2022/01/17 10:17:15;;;;;;;15.27;10.55;;;;;;;7.06;52.53;100152.44;4373498;32;34834;-56
2022/01/17 10:19:44;;;;;;;16.42;10.05;;;;;;;6.90;53.09;100153.06;4372532;32;35363;-56
2022/01/17 10:22:23;;;;;;;14.23;9.20;;;;;;;7.09;52.82;100141.78;4372998;32;34524;-56
2022/01/17 10:28:16;;;;;;;15.68;9.93;;;;;;;7.18;52.09;100117.78;4387350;32;33901;-56
2022/01/17 10:30:39;;;;;;;14.57;9.23;;;;;;;7.25;51.91;100110.47;4386067;32;35367;-56
2022/01/17 10:35:42;;;;;;;13.57;9.10;;;;;;;7.33;51.65;100097.87;4384044;32;34057;-56
2022/01/17 10:38:19;;;;;;;14.98;8.93;;;;;;;7.33;51.73;100099.62;4372631;32;33625;-56
2022/01/17 10:40:53;;;;;;;15.57;9.57;;;;;;;7.34;51.59;100094.31;4372481;32;35278;-56
2022/01/17 10:43:34;;;;;;;14.75;9.52;;;;;;;7.13;52.26;100096.09;4372555;32;34774;-56
2022/01/17 10:46:11;;;;;;;14.82;8.93;;;;;;;7.10;52.57;100076.06;4374925;32;34261;-56
2022/01/17 10:48:51;;;;;;;14.27;9.40;;;;;;;7.10;52.67;100070.81;4384088;32;33806;-57
2022/01/17 10:51:27;;;;;;;15.55;9.93;;;;;;;7.21;52.56;100073.00;4387485;32;34944;-56
2022/01/17 10:53:55;;;;;;;14.20;9.75;;;;;;;7.18;52.92;100091.50;4380779;32;33612;-56
2022/01/17 10:56:25;;;;;;;15.63;9.75;;;;;;;7.13;52.95;100080.34;4375912;32;32374;-56
2022/01/17 10:59:03;;;;;;;15.20;9.85;;;;;;;7.20;52.99;100071.28;4372062;32;34649;-56
2022/01/17 11:01:37;;;;;;;13.98;9.57;;;;;;;7.37;53.08;100067.94;4371096;32;34476;-56
2022/01/17 11:04:09;;;;;;;14.35;10.05;;;;;;;7.23;53.25;100050.16;4358731;32;35601;-56
2022/01/17 11:06:47;;;;;;;14.80;10.30;;;;;;;7.27;53.25;100035.97;4380779;32;31977;-56
2022/01/17 11:09:14;;;;;;;14.27;9.57;;;;;;;7.15;53.37;100036.47;4372305;32;32879;-56
2022/01/17 11:11:42;;;;;;;16.17;9.68;;;;;;;7.14;53.18;100026.91;4372711;32;34524;-55
2022/01/17 11:14:11;;;;;;;15.00;9.60;;;;;;;7.23;53.01;100033.50;4372943;32;33476;-56
2022/01/17 11:16:38;;;;;;;14.35;9.48;;;;;;;7.40;52.79;100019.63;4376162;32;33591;-56
2022/01/17 11:20:03;;;;;;;13.93;9.50;;;;;;;7.54;52.51;100019.87;4382785;32;34294;-56
2022/01/17 11:22:09;;;;;;;15.13;9.45;;;;;;;7.55;52.08;100015.47;4385914;32;34568;-56
2022/01/17 11:24:36;;;;;;;14.52;9.15;;;;;;;7.55;52.30;99999.72;4386920;32;34851;-56
2022/01/17 11:27:04;;;;;;;13.20;9.23;;;;;;;7.67;51.85;99980.72;4371754;32;34296;-56
2022/01/17 11:29:31;;;;;;;16.25;9.40;;;;;;;7.49;52.23;99971.94;4371989;32;33772;-56
2022/01/17 11:31:59;;;;;;;14.07;8.70;;;;;;;7.63;51.77;99974.75;4358555;32;34501;-56
2022/01/17 11:34:26;;;;;;;15.57;8.80;;;;;;;7.82;51.26;99976.53;4362840;32;33985;-55
2022/01/17 11:36:54;;;;;;;;;;;;;;;7.67;51.69;99978.09;4372091;32;33218;-56
2022/01/17 11:39:22;;;;;;;10.98;7.22;;;;;;;7.85;51.17;99986.91;4359400;32;34765;-56
2022/01/17 11:41:50;;;;;;;11.75;6.22;;;;;;;7.74;51.27;99994.47;4372653;32;34041;-55
2022/01/17 11:44:31;;;;;;;9.85;5.75;;;;;;;7.72;50.95;100009.44;4386866;32;33591;-56
2022/01/17 11:47:09;;;;;;;7.65;4.90;;;;;;;7.93;50.20;100024.22;4386938;32;33222;-56
2022/01/17 11:49:40;;;;;;;10.32;5.22;;;;;;;7.75;50.37;99990.88;4386507;32;34477;-57
2022/01/17 11:52:28;;;;;;;9.27;5.50;;;;;;;7.79;50.44;99995.06;4373793;32;34091;-56
2022/01/17 11:54:55;;;;;;;12.00;5.25;;;;;;;7.94;49.99;100009.28;4386457;32;34109;-56
2022/01/17 11:57:23;;;;;;;9.52;5.50;;;;;;;7.92;50.22;100000.63;4386589;32;33514;-56
2022/01/17 11:59:51;;;;;;;9.38;4.47;;;;;;;8.14;49.74;99971.50;4386691;32;33397;-56
2022/01/17 12:02:36;;;;;;;9.23;4.78;;;;;;;8.02;49.87;99968.53;4372716;32;33625;-56